Time;durP1;ratioP1;P1;durP2;ratioP2;P2;SDS_P1;SDS_P2;PMS_P1;PMS_P2;Temp;Humidity;BMP_temperature;BMP_pressure;BME280_temperature;BME280_humidity;BME280_pressure;Samples;Min_cycle;Max_cycle;Signal;HPM_P1;HPM_P2
2020/12/26 00:06:43;;;;;;;7.97;4.80;;;4.70;99.90;;;;;;1966094;23;20738;-85
2020/12/26 00:15:02;;;;;;;7.20;5.50;;;4.90;99.90;;;;;;5227368;23;20449;-86
2020/12/26 00:17:34;;;;;;;7.80;4.60;;;4.90;99.90;;;;;;4996244;23;20225;-86
2020/12/26 00:26:04;;;;;;;6.83;4.80;;;5.10;99.90;;;;;;4998886;28;20431;-86
2020/12/26 00:35:38;;;;;;;7.40;5.03;;;5.10;99.90;;;;;;5022223;23;20487;-85
2020/12/26 01:49:19;;;;;;;7.63;4.30;;;5.20;99.90;;;;;;4921830;28;20481;-87
2020/12/26 02:35:28;;;;;;;6.93;3.63;;;4.60;99.90;;;;;;4949325;29;20459;-86
2020/12/26 03:18:39;;;;;;;7.13;3.20;;;4.60;99.90;;;;;;4959573;29;20473;-86
2020/12/26 03:31:34;;;;;;;4.33;2.80;;;4.50;99.90;;;;;;5156414;23;20515;-87
2020/12/26 04:01:03;;;;;;;3.93;2.73;;;4.00;99.90;;;;;;5077416;23;20498;-86
2020/12/26 04:07:35;;;;;;;9.07;2.43;;;4.10;99.90;;;;;;5302156;23;20507;-86
2020/12/26 04:47:15;;;;;;;7.00;2.90;;;3.70;99.90;;;;;;4949581;29;20500;-86
2020/12/26 05:02:46;;;;;;;4.03;2.63;;;3.50;99.90;;;;;;5324238;23;20563;-85
2020/12/26 05:15:17;;;;;;;7.60;4.03;;;3.30;99.90;;;;;;5009183;23;20468;-85
2020/12/26 05:22:05;;;;;;;6.03;3.30;;;3.30;99.90;;;;;;4960523;29;20457;-87
2020/12/26 05:25:37;;;;;;;3.60;2.50;;;3.40;99.90;;;;;;4959095;29;20448;-86
2020/12/26 06:14:57;;;;;;;4.20;2.03;;;3.20;99.90;;;;;;4986199;23;20504;-86
2020/12/26 06:17:50;;;;;;;3.23;2.20;;;3.20;99.90;;;;;;4936156;29;20471;-86
2020/12/26 06:20:58;;;;;;;7.60;2.23;;;3.20;99.90;;;;;;4961216;29;20425;-86
2020/12/26 07:03:28;;;;;;;3.73;2.50;;;2.90;99.90;;;;;;5213491;23;20503;-86
2020/12/26 07:15:43;;;;;;;5.23;2.37;;;2.60;99.90;;;;;;4923506;29;20435;-86
2020/12/26 07:30:43;;;;;;;6.07;2.97;;;2.70;99.90;;;;;;4981267;29;20456;-86
2020/12/26 07:47:36;;;;;;;12.30;4.57;;;2.30;99.90;;;;;;5042885;23;20485;-86
2020/12/26 07:53:18;;;;;;;7.90;4.13;;;2.40;99.90;;;;;;4978745;29;20495;-86
2020/12/26 07:56:01;;;;;;;13.10;5.90;;;2.40;99.90;;;;;;4978962;29;20433;-86
2020/12/26 07:58:38;;;;;;;10.30;4.87;;;2.40;99.90;;;;;;5190810;23;20493;-86
2020/12/26 08:01:08;;;;;;;12.87;4.97;;;2.40;99.90;;;;;;4958294;29;20457;-85
2020/12/26 08:03:52;;;;;;;11.87;4.93;;;2.40;99.90;;;;;;4957575;29;20486;-85
2020/12/26 08:06:21;;;;;;;10.67;5.27;;;2.40;99.90;;;;;;4958168;29;20487;-86
2020/12/26 08:08:50;;;;;;;11.63;4.97;;;2.40;99.90;;;;;;4957827;29;20497;-86
2020/12/26 08:11:25;;;;;;;11.07;5.20;;;2.60;99.90;;;;;;4957674;29;20455;-85
2020/12/26 08:14:08;;;;;;;14.17;5.10;;;2.50;99.90;;;;;;4957590;29;20464;-86
2020/12/26 08:16:37;;;;;;;13.77;4.27;;;2.60;99.90;;;;;;4959039;29;20491;-86
2020/12/26 08:19:12;;;;;;;9.93;4.70;;;2.50;99.90;;;;;;4957996;29;20477;-86
2020/12/26 08:21:51;;;;;;;12.60;4.60;;;2.70;99.90;;;;;;4958664;29;20428;-86
2020/12/26 08:26:57;;;;;;;11.30;4.07;;;2.90;99.90;;;;;;5181266;23;20486;-85
2020/12/26 08:29:55;;;;;;;10.77;4.43;;;3.00;99.90;;;;;;4978004;29;20534;-85
2020/12/26 08:35:49;;;;;;;7.77;4.27;;;3.00;99.90;;;;;;5029160;23;20493;-84
2020/12/26 08:38:28;;;;;;;5.53;3.60;;;3.10;99.90;;;;;;4931077;29;20453;-86
2020/12/26 08:43:47;;;;;;;6.97;3.90;;;3.20;99.90;;;;;;4976686;23;20517;-87
2020/12/26 08:49:09;;;;;;;3.50;3.00;;;3.20;99.90;;;;;;4977607;28;20445;-86
2020/12/26 08:51:45;;;;;;;6.60;3.30;;;3.20;99.90;;;;;;4976344;29;20440;-86
2020/12/26 08:54:31;;;;;;;6.73;3.47;;;3.30;99.90;;;;;;4976675;29;20490;-86
2020/12/26 09:05:52;;;;;;;3.40;3.10;;;3.40;99.90;;;;;;4977670;29;20468;-86
2020/12/26 09:11:31;;;;;;;7.73;3.70;;;3.50;99.90;;;;;;4977714;29;20439;-86
2020/12/26 09:14:10;;;;;;;6.13;3.50;;;3.50;99.90;;;;;;4976708;29;20496;-86
2020/12/26 09:32:09;;;;;;;8.23;3.83;;;3.90;99.90;;;;;;4937336;29;20498;-86
2020/12/26 09:35:27;;;;;;;4.67;3.17;;;3.80;99.90;;;;;;4939546;29;20485;-86
2020/12/26 09:49:44;;;;;;;6.77;3.60;;;4.30;99.90;;;;;;5066193;23;20491;-86
2020/12/26 10:04:33;;;;;;;4.77;3.13;;;4.50;99.90;;;;;;4942173;28;20521;-86
2020/12/26 10:25:10;;;;;;;7.70;3.70;;;4.80;99.90;;;;;;4960267;29;20500;-86
2020/12/26 10:30:37;;;;;;;9.57;3.80;;;4.80;99.90;;;;;;4938042;29;20449;-86
2020/12/26 10:33:18;;;;;;;6.83;3.37;;;4.70;99.90;;;;;;4923616;29;20477;-86
2020/12/26 10:36:10;;;;;;;9.47;3.40;;;4.80;99.90;;;;;;4938440;29;20454;-86
2020/12/26 10:38:43;;;;;;;8.50;3.00;;;5.00;99.90;;;;;;4918025;29;20455;-86
2020/12/26 10:41:45;;;;;;;4.63;3.23;;;5.20;99.90;;;;;;4957258;23;20506;-86
2020/12/26 10:47:19;;;;;;;6.27;3.27;;;5.30;99.90;;;;;;5021751;23;20497;-86
2020/12/26 11:06:23;;;;;;;5.93;3.20;;;5.30;99.90;;;;;;4954281;29;20492;-85
2020/12/26 11:09:08;;;;;;;5.70;3.10;;;5.40;99.90;;;;;;4944340;29;20210;-86
2020/12/26 11:12:02;;;;;;;5.43;2.93;;;5.60;99.90;;;;;;4958499;29;20455;-86
2020/12/26 11:14:31;;;;;;;5.30;2.80;;;5.50;99.90;;;;;;4960049;29;20488;-86
2020/12/26 11:17:01;;;;;;;4.80;2.80;;;5.40;99.90;;;;;;4942608;29;20262;-86
2020/12/26 11:19:30;;;;;;;4.57;2.70;;;5.50;99.90;;;;;;4958997;28;20210;-85
2020/12/26 11:27:47;;;;;;;5.90;3.40;;;5.60;99.90;;;;;;4937493;29;20218;-86
2020/12/26 11:30:20;;;;;;;2.90;2.70;;;5.60;99.90;;;;;;4960227;29;20464;-86
2020/12/26 11:32:58;;;;;;;5.67;2.87;;;5.80;99.90;;;;;;4960174;29;20186;-86
2020/12/26 11:35:56;;;;;;;5.13;2.80;;;5.80;99.90;;;;;;4960578;29;20563;-85
2020/12/26 11:39:05;;;;;;;5.00;2.90;;;5.70;99.90;;;;;;5033449;23;20252;-86
2020/12/26 11:41:40;;;;;;;8.13;3.27;;;5.90;99.90;;;;;;4980257;28;20217;-86
2020/12/26 11:52:31;;;;;;;4.57;2.30;;;6.00;99.90;;;;;;4978090;29;20225;-85
2020/12/26 11:55:37;;;;;;;8.67;2.67;;;6.10;99.90;;;;;;4980089;29;20197;-85
2020/12/26 12:22:33;;;;;;;2.90;2.47;;;6.00;99.90;;;;;;5006619;23;20244;-86
2020/12/26 12:44:29;;;;;;;3.13;2.67;;;6.20;99.90;;;;;;1885379;23;20496;31
2020/12/26 13:23:32;;;;;;;4.40;3.00;;;6.40;99.90;;;;;;5101003;23;20233;-86
2020/12/26 13:34:38;;;;;;;2.93;2.53;;;6.50;99.90;;;;;;4950832;27;20241;-84
2020/12/26 13:37:06;;;;;;;4.43;3.27;;;6.50;99.90;;;;;;4954592;29;20226;-84
2020/12/26 13:39:39;;;;;;;3.83;3.10;;;6.60;99.90;;;;;;4978507;23;20242;-84
2020/12/26 16:04:19;;;;;;;6.43;2.20;;;6.60;99.90;;;;;;4951789;28;20230;-84
2020/12/26 16:06:50;;;;;;;3.17;2.17;;;6.50;99.90;;;;;;4950583;29;20280;-84
2020/12/26 16:09:18;;;;;;;5.70;2.40;;;6.50;99.90;;;;;;4935486;29;20564;-84
2020/12/26 16:14:16;;;;;;;3.13;2.10;;;6.40;99.90;;;;;;4915863;29;20239;-84
2020/12/26 16:16:58;;;;;;;3.27;2.97;;;6.50;99.90;;;;;;5005021;23;20262;-84
2020/12/26 16:19:32;;;;;;;2.30;2.07;;;6.50;99.90;;;;;;4995911;23;20245;-83
2020/12/26 16:22:05;;;;;;;3.67;2.57;;;6.50;99.90;;;;;;4956643;29;20202;-83
2020/12/26 16:24:34;;;;;;;4.87;2.20;;;6.50;99.90;;;;;;5001011;23;20272;-84
2020/12/26 16:27:06;;;;;;;5.47;2.40;;;6.50;99.90;;;;;;4960787;23;20242;-84
2020/12/26 16:29:39;;;;;;;5.10;2.40;;;6.50;99.90;;;;;;4955506;29;20234;-83
2020/12/26 16:32:06;;;;;;;2.40;2.20;;;6.50;99.90;;;;;;4964440;29;20203;-84
2020/12/26 16:34:35;;;;;;;5.00;3.37;;;6.40;99.90;;;;;;4953601;29;20505;-84
2020/12/26 16:39:53;;;;;;;4.10;2.37;;;6.40;99.90;;;;;;4960258;29;20202;-84
2020/12/26 16:42:22;;;;;;;3.77;2.43;;;6.50;99.90;;;;;;4971671;29;20206;-84
2020/12/26 16:45:00;;;;;;;3.90;2.27;;;6.60;99.90;;;;;;4971088;29;20193;-85
2020/12/26 16:47:31;;;;;;;3.20;2.23;;;6.60;99.90;;;;;;4950639;29;20242;-85
2020/12/26 16:50:05;;;;;;;7.30;2.97;;;6.60;99.90;;;;;;4941291;29;20210;-85
2020/12/26 16:52:34;;;;;;;3.30;2.20;;;6.60;99.90;;;;;;4954735;29;20217;-84
2020/12/26 16:55:06;;;;;;;6.00;2.80;;;6.50;99.90;;;;;;4953537;29;20258;-85
2020/12/26 16:57:39;;;;;;;3.67;2.60;;;6.50;99.90;;;;;;4949840;29;20281;-85
2020/12/26 17:00:14;;;;;;;3.73;2.90;;;6.50;99.90;;;;;;4958861;29;20206;-85
2020/12/26 17:02:53;;;;;;;5.13;3.40;;;6.50;99.90;;;;;;4955266;29;20206;-85
2020/12/26 17:05:28;;;;;;;4.83;2.80;;;6.50;99.90;;;;;;4954097;29;20206;-85
2020/12/26 17:07:57;;;;;;;6.17;2.90;;;6.40;99.90;;;;;;4954192;23;20254;-85
2020/12/26 17:10:27;;;;;;;2.40;2.20;;;6.30;99.90;;;;;;4935000;29;20227;-85
2020/12/26 17:12:57;;;;;;;4.27;2.57;;;6.30;99.90;;;;;;4936253;29;20256;-85
2020/12/26 17:15:25;;;;;;;4.00;2.50;;;6.30;99.90;;;;;;4935326;29;20210;-85
2020/12/26 17:17:54;;;;;;;4.60;3.00;;;6.40;99.90;;;;;;4934288;29;20235;-85
2020/12/26 17:20:22;;;;;;;3.77;2.83;;;6.30;99.90;;;;;;4931901;29;20207;-84
2020/12/26 17:22:56;;;;;;;3.30;3.00;;;6.40;99.90;;;;;;4934906;29;20210;-85
2020/12/26 17:25:25;;;;;;;3.00;2.50;;;6.20;99.90;;;;;;4934955;29;20214;-85
2020/12/26 17:27:55;;;;;;;3.40;2.83;;;6.20;99.90;;;;;;4917479;29;20214;-85
2020/12/26 17:30:25;;;;;;;6.57;3.00;;;6.10;99.90;;;;;;4934147;29;20203;-84
2020/12/26 17:32:53;;;;;;;5.87;3.07;;;6.00;99.90;;;;;;4925422;23;20486;-85
2020/12/26 17:35:20;;;;;;;6.60;2.90;;;6.10;99.90;;;;;;4934165;29;20235;-84
2020/12/26 17:37:46;;;;;;;3.20;3.00;;;6.10;99.90;;;;;;4934144;29;20246;-84
2020/12/26 17:40:14;;;;;;;3.90;3.50;;;6.00;99.90;;;;;;4934438;29;20207;-84
2020/12/26 17:42:44;;;;;;;4.13;3.83;;;6.00;99.90;;;;;;4933390;29;20203;-84
2020/12/26 17:45:12;;;;;;;3.90;3.17;;;6.00;99.90;;;;;;4934107;29;20278;-84
2020/12/26 17:47:39;;;;;;;6.00;3.40;;;6.10;99.90;;;;;;4951896;23;20310;-84
2020/12/26 17:50:09;;;;;;;7.10;4.03;;;5.90;99.90;;;;;;4933951;29;20211;-84
2020/12/26 17:52:37;;;;;;;3.43;3.07;;;6.00;99.90;;;;;;4934054;29;20494;-84
2020/12/26 17:55:05;;;;;;;6.47;3.20;;;5.90;99.90;;;;;;4933870;29;20242;-83
2020/12/26 17:57:38;;;;;;;4.37;3.67;;;5.90;99.90;;;;;;4933365;29;20454;-83
2020/12/26 18:00:05;;;;;;;3.70;3.50;;;5.90;99.90;;;;;;4917792;29;20358;-84
2020/12/26 18:02:39;;;;;;;5.83;3.20;;;5.90;99.90;;;;;;4933722;29;20497;-84
2020/12/26 18:05:09;;;;;;;3.67;3.30;;;5.90;99.90;;;;;;4933767;29;20454;-84
2020/12/26 18:07:36;;;;;;;4.33;3.33;;;5.90;99.90;;;;;;4933026;29;20246;-84
2020/12/26 18:10:03;;;;;;;3.87;3.53;;;5.90;99.90;;;;;;4933379;29;20235;-84
2020/12/26 18:12:32;;;;;;;5.53;3.57;;;6.00;99.90;;;;;;4917132;29;20204;-84
2020/12/26 18:15:01;;;;;;;9.13;3.70;;;6.00;99.90;;;;;;4933454;29;20267;-84
2020/12/26 18:17:31;;;;;;;4.10;2.93;;;6.00;99.90;;;;;;4920800;29;20235;-85
2020/12/26 18:20:01;;;;;;;3.27;2.77;;;6.00;99.90;;;;;;4937577;29;20211;-84
2020/12/26 18:22:29;;;;;;;3.67;2.77;;;6.00;99.90;;;;;;4936914;29;20258;-84
2020/12/26 18:24:57;;;;;;;3.67;3.13;;;6.10;99.90;;;;;;4919770;29;20271;-84
2020/12/26 18:27:26;;;;;;;3.50;3.20;;;6.10;99.90;;;;;;4936208;29;20266;-84
2020/12/26 18:29:53;;;;;;;4.77;3.47;;;6.10;99.90;;;;;;4920475;29;20235;-84
2020/12/26 18:32:20;;;;;;;8.90;4.17;;;6.10;99.90;;;;;;4936649;29;20211;-83
2020/12/26 18:34:49;;;;;;;3.80;3.33;;;6.10;99.90;;;;;;4935933;29;20227;-83
2020/12/26 18:37:21;;;;;;;3.87;3.30;;;6.00;99.90;;;;;;4936711;29;20231;-84
2020/12/26 18:39:50;;;;;;;3.87;3.37;;;6.00;99.90;;;;;;4937535;29;20233;-84
2020/12/26 18:42:18;;;;;;;3.53;3.23;;;6.00;99.90;;;;;;4937148;29;20207;-84
2020/12/26 18:44:45;;;;;;;4.53;4.10;;;6.00;99.90;;;;;;4919718;29;20247;-83
2020/12/26 18:47:13;;;;;;;4.93;3.70;;;6.00;99.90;;;;;;4919492;29;20239;-83
2020/12/26 18:49:42;;;;;;;7.00;3.43;;;6.00;99.90;;;;;;4936406;29;20215;-83
2020/12/26 18:52:11;;;;;;;3.53;3.23;;;6.00;99.90;;;;;;4935820;29;20239;-84
2020/12/26 18:54:39;;;;;;;3.53;3.20;;;6.10;99.90;;;;;;4936438;29;20239;-83
2020/12/26 18:57:10;;;;;;;4.00;3.40;;;6.10;99.90;;;;;;4936075;29;20253;-84
2020/12/26 18:59:38;;;;;;;4.03;3.70;;;6.00;99.90;;;;;;4936608;29;20207;-83
2020/12/26 19:02:05;;;;;;;5.47;3.80;;;6.10;99.90;;;;;;4936164;29;20208;-83
2020/12/26 19:04:32;;;;;;;4.87;3.63;;;6.10;99.90;;;;;;4935673;29;20211;-84
2020/12/26 19:07:03;;;;;;;4.10;3.53;;;5.90;99.90;;;;;;4936294;29;20231;-83
2020/12/26 19:09:30;;;;;;;4.10;3.70;;;6.00;99.90;;;;;;4920244;29;20263;-84
2020/12/26 19:11:58;;;;;;;4.97;3.53;;;6.00;99.90;;;;;;4936446;29;20215;-84
2020/12/26 19:14:31;;;;;;;4.73;4.33;;;6.00;99.90;;;;;;4935858;29;20237;-83
2020/12/26 19:16:58;;;;;;;4.83;4.27;;;6.00;99.90;;;;;;4919383;29;20243;-84
2020/12/26 19:19:27;;;;;;;6.43;4.30;;;6.00;99.90;;;;;;4934864;29;20630;-84
2020/12/26 19:21:54;;;;;;;5.57;5.07;;;6.10;99.90;;;;;;4931386;29;20203;-84
2020/12/26 19:34:08;;;;;;;6.70;4.63;;;6.10;99.90;;;;;;4896715;29;20242;-84
2020/12/26 19:36:35;;;;;;;4.87;4.47;;;6.10;99.90;;;;;;4901436;29;20240;-84
2020/12/26 19:39:17;;;;;;;6.80;4.87;;;6.10;99.90;;;;;;4989146;23;20242;-84
2020/12/26 19:45:09;;;;;;;4.27;3.93;;;6.10;99.90;;;;;;4938997;29;20211;-83
2020/12/26 19:47:37;;;;;;;5.27;4.70;;;6.10;99.90;;;;;;4977728;23;20704;-83
2020/12/26 19:53:53;;;;;;;14.77;6.50;;;6.20;99.90;;;;;;5026045;23;20248;-83
2020/12/26 19:56:28;;;;;;;4.73;4.23;;;6.20;99.90;;;;;;4953146;29;20238;-84
2020/12/26 19:58:56;;;;;;;8.23;4.77;;;6.30;99.90;;;;;;4956072;29;20210;-84
2020/12/26 20:01:24;;;;;;;4.47;4.17;;;6.40;99.90;;;;;;4954940;29;20238;-85
2020/12/26 20:03:51;;;;;;;4.77;4.37;;;6.20;99.90;;;;;;4953667;29;20215;-83
2020/12/26 20:06:18;;;;;;;6.90;4.60;;;6.20;99.90;;;;;;4927875;29;20234;-84
2020/12/26 20:08:44;;;;;;;6.27;4.90;;;6.10;99.90;;;;;;4934205;29;20214;-85
2020/12/26 20:11:20;;;;;;;4.47;4.17;;;6.10;99.90;;;;;;4935084;29;20231;-84
2020/12/26 20:13:50;;;;;;;5.50;4.90;;;6.20;99.90;;;;;;4919064;29;20270;-85
2020/12/26 20:16:17;;;;;;;8.00;5.50;;;6.20;99.90;;;;;;4934074;29;20227;-85
2020/12/26 20:18:47;;;;;;;6.10;5.50;;;6.20;99.90;;;;;;4934119;29;20207;-84
2020/12/26 20:21:14;;;;;;;6.07;5.47;;;6.10;99.90;;;;;;4916717;29;20262;-85
2020/12/26 20:27:08;;;;;;;7.10;6.50;;;6.00;99.90;;;;;;4939556;29;20242;-86
2020/12/26 20:29:36;;;;;;;7.60;6.13;;;6.00;99.90;;;;;;4920312;29;20207;-86
2020/12/26 20:32:17;;;;;;;7.67;6.63;;;5.90;99.90;;;;;;4938522;29;20191;-86
2020/12/26 20:34:46;;;;;;;8.40;7.33;;;5.90;99.90;;;;;;4939482;29;20230;-86
2020/12/26 20:37:16;;;;;;;8.47;6.70;;;5.90;99.90;;;;;;4920271;29;20223;-86
2020/12/26 20:39:44;;;;;;;7.43;6.73;;;5.90;99.90;;;;;;4934052;29;20207;-85
2020/12/26 20:42:13;;;;;;;7.80;7.00;;;5.80;99.90;;;;;;4932857;29;20237;-85
2020/12/26 20:44:40;;;;;;;11.33;7.53;;;5.80;99.90;;;;;;4934001;29;20214;-85
2020/12/26 20:47:08;;;;;;;11.67;7.97;;;5.70;99.90;;;;;;4918419;29;20458;-84
2020/12/26 20:49:37;;;;;;;8.77;7.87;;;5.80;99.90;;;;;;4917407;29;20211;-84
2020/12/26 20:52:04;;;;;;;10.43;8.60;;;5.70;99.90;;;;;;4934814;29;20446;-84
2020/12/26 20:54:33;;;;;;;8.43;7.77;;;5.70;99.90;;;;;;4934693;29;20258;-83
2020/12/26 20:57:00;;;;;;;9.27;8.30;;;5.70;99.90;;;;;;4934534;29;20231;-84
2020/12/26 20:59:31;;;;;;;11.20;8.60;;;5.70;99.90;;;;;;4934202;29;20682;-83
2020/12/26 21:02:00;;;;;;;9.73;8.73;;;5.70;99.90;;;;;;4923026;29;20464;-83
2020/12/26 21:04:27;;;;;;;9.63;8.63;;;5.60;99.90;;;;;;4922624;29;20195;-84
2020/12/26 21:06:58;;;;;;;10.47;9.17;;;5.70;99.90;;;;;;4930573;29;20246;-84
2020/12/26 21:09:25;;;;;;;9.60;8.77;;;5.60;99.90;;;;;;4949564;29;20241;-84
2020/12/26 21:11:54;;;;;;;10.57;9.57;;;5.60;99.90;;;;;;4952781;29;20207;-84
2020/12/26 21:14:23;;;;;;;11.00;9.00;;;5.60;99.90;;;;;;4953201;29;20245;-84
2020/12/26 21:16:51;;;;;;;9.93;8.93;;;5.60;99.90;;;;;;4953017;29;20468;-85
2020/12/26 21:19:18;;;;;;;10.20;9.20;;;5.60;99.90;;;;;;4936539;29;20249;-85
2020/12/26 21:21:46;;;;;;;13.10;10.00;;;5.60;99.90;;;;;;4953505;29;20234;-84
2020/12/26 21:24:14;;;;;;;9.27;8.47;;;5.60;99.90;;;;;;4936280;29;20211;-84
2020/12/26 21:26:41;;;;;;;11.60;8.27;;;5.60;99.90;;;;;;4952614;29;20230;-84
2020/12/26 21:29:09;;;;;;;9.43;8.53;;;5.60;99.90;;;;;;4952763;29;20206;-84
2020/12/26 21:31:38;;;;;;;9.87;8.97;;;5.60;99.90;;;;;;4953325;29;20227;-84
2020/12/26 21:34:06;;;;;;;9.50;8.60;;;5.70;99.90;;;;;;4953414;29;21015;-84
2020/12/26 21:36:34;;;;;;;9.37;8.47;;;5.60;99.90;;;;;;4952637;29;20234;-85
2020/12/26 21:39:04;;;;;;;10.70;9.13;;;5.70;99.90;;;;;;4952768;29;20539;-84
2020/12/26 21:41:31;;;;;;;10.27;9.13;;;5.60;99.90;;;;;;4952308;29;20218;-84
2020/12/26 21:44:00;;;;;;;10.70;8.37;;;5.70;99.90;;;;;;4952723;29;20210;-83
2020/12/26 21:46:28;;;;;;;9.40;8.60;;;5.70;99.90;;;;;;4953530;29;20239;-84
2020/12/26 21:48:57;;;;;;;9.33;8.43;;;5.80;99.90;;;;;;4952981;29;20282;-84
2020/12/26 21:51:28;;;;;;;9.27;8.37;;;5.80;99.90;;;;;;4935646;29;20206;-85
2020/12/26 21:53:57;;;;;;;9.10;8.30;;;5.80;99.90;;;;;;4951961;29;20231;-84
2020/12/26 21:56:26;;;;;;;8.83;8.03;;;5.80;99.90;;;;;;4953041;29;20716;-85
2020/12/26 21:58:53;;;;;;;9.87;8.97;;;5.80;99.90;;;;;;4952296;29;20223;-84
2020/12/26 22:01:25;;;;;;;9.07;8.17;;;5.90;99.90;;;;;;4952403;29;20455;-84
2020/12/26 22:03:53;;;;;;;7.93;7.33;;;5.90;99.90;;;;;;4948020;29;20444;-85
2020/12/26 22:06:20;;;;;;;9.27;8.37;;;5.80;99.90;;;;;;4936432;29;20227;-84
2020/12/26 22:08:49;;;;;;;9.20;8.30;;;5.90;99.90;;;;;;4935032;29;20213;-84
2020/12/26 22:11:21;;;;;;;8.83;7.90;;;5.80;99.90;;;;;;4942833;29;20480;-84
2020/12/26 22:13:49;;;;;;;8.67;7.93;;;5.80;99.90;;;;;;4917967;29;20761;-84
2020/12/26 22:16:16;;;;;;;8.90;7.93;;;5.90;99.90;;;;;;4942297;29;20599;-84
2020/12/26 22:18:58;;;;;;;8.37;7.67;;;5.90;99.90;;;;;;4945711;29;20262;-85
2020/12/26 22:21:26;;;;;;;9.07;8.27;;;5.80;99.90;;;;;;4952116;29;20316;-84
2020/12/26 22:23:58;;;;;;;8.97;7.97;;;5.80;99.90;;;;;;4948194;29;20207;-84
2020/12/26 22:26:26;;;;;;;7.63;7.03;;;5.90;99.90;;;;;;4953148;29;20257;-85
2020/12/26 22:28:55;;;;;;;7.43;6.73;;;5.80;99.90;;;;;;4952766;29;20441;-84
2020/12/26 22:31:24;;;;;;;9.03;8.00;;;5.80;99.90;;;;;;4952292;29;20210;-84
2020/12/26 22:33:52;;;;;;;8.87;7.73;;;5.80;99.90;;;;;;4950921;29;20238;-85
2020/12/26 22:36:20;;;;;;;8.93;8.00;;;5.90;99.90;;;;;;4951149;29;20230;-84
2020/12/26 22:38:48;;;;;;;9.27;8.47;;;5.90;99.90;;;;;;4952148;29;20239;-84
2020/12/26 22:41:17;;;;;;;10.30;8.93;;;5.90;99.90;;;;;;4936076;29;20206;-85
2020/12/26 22:43:44;;;;;;;9.03;8.23;;;5.90;99.90;;;;;;4952218;29;20595;-84
2020/12/26 22:46:17;;;;;;;9.57;8.67;;;5.80;99.90;;;;;;4952169;29;20250;-84
2020/12/26 22:48:44;;;;;;;9.00;8.20;;;5.90;99.90;;;;;;4952178;29;20215;-84
2020/12/26 22:51:11;;;;;;;10.17;8.80;;;5.90;99.90;;;;;;4952197;29;20432;-85
2020/12/26 22:53:38;;;;;;;9.80;8.80;;;5.90;99.90;;;;;;4935058;29;20214;-84
2020/12/26 22:56:06;;;;;;;9.85;8.85;;;5.90;99.90;;;;;;4950969;29;20476;-84
2020/12/26 22:58:36;;;;;;;10.80;9.77;;;5.90;99.90;;;;;;4935015;29;20211;-84
2020/12/26 23:01:03;;;;;;;13.63;9.10;;;5.90;99.90;;;;;;4952031;29;20206;-84
2020/12/26 23:03:31;;;;;;;9.13;8.23;;;5.90;99.90;;;;;;4937521;29;20211;-84
2020/12/26 23:05:58;;;;;;;9.83;8.37;;;5.80;99.90;;;;;;4955747;29;20452;-85
2020/12/26 23:08:28;;;;;;;10.13;9.20;;;5.90;99.90;;;;;;4956368;29;20202;-84
2020/12/26 23:10:56;;;;;;;10.20;8.70;;;5.80;99.90;;;;;;4955672;29;20218;-85
2020/12/26 23:13:24;;;;;;;9.93;8.27;;;5.90;99.90;;;;;;4939359;29;20206;-84
2020/12/26 23:15:52;;;;;;;9.87;8.90;;;5.90;99.90;;;;;;4955231;29;20488;-84
2020/12/26 23:18:22;;;;;;;10.90;8.77;;;5.90;99.90;;;;;;4938452;29;20242;-84
2020/12/26 23:20:50;;;;;;;10.53;8.60;;;6.00;99.90;;;;;;4955374;29;20237;-84
2020/12/26 23:23:17;;;;;;;9.13;8.10;;;5.90;99.90;;;;;;4955531;29;20601;-84
2020/12/26 23:25:44;;;;;;;8.63;7.73;;;6.00;99.90;;;;;;4955411;29;20460;-84
2020/12/26 23:28:11;;;;;;;8.87;7.40;;;5.90;99.90;;;;;;4938580;29;20231;-84
2020/12/26 23:30:43;;;;;;;10.90;8.27;;;5.90;99.90;;;;;;4939035;29;20206;-84
2020/12/26 23:33:11;;;;;;;9.57;8.57;;;6.00;99.90;;;;;;4954396;29;20221;-84
2020/12/26 23:35:40;;;;;;;9.93;7.90;;;5.90;99.90;;;;;;4954741;29;20243;-84
2020/12/26 23:38:08;;;;;;;8.37;7.57;;;5.90;99.90;;;;;;4937849;29;20230;-84
2020/12/26 23:40:35;;;;;;;10.67;8.67;;;6.00;99.90;;;;;;4954410;29;20202;-84
2020/12/26 23:43:03;;;;;;;8.83;7.93;;;6.00;99.90;;;;;;4938092;29;20194;-85
2020/12/26 23:45:34;;;;;;;8.77;7.57;;;6.00;99.90;;;;;;4954419;29;20214;-84
2020/12/26 23:48:02;;;;;;;9.60;7.60;;;6.10;99.90;;;;;;4955108;29;20235;-84
2020/12/26 23:50:30;;;;;;;10.03;7.97;;;6.00;99.90;;;;;;4954635;29;20206;-84
2020/12/26 23:52:57;;;;;;;9.03;7.97;;;6.00;99.90;;;;;;4937525;29;20270;-84
2020/12/26 23:55:25;;;;;;;8.80;7.80;;;6.00;99.90;;;;;;4938187;29;20250;-84
2020/12/26 23:57:54;;;;;;;8.53;7.17;;;5.90;99.90;;;;;;4954632;29;20290;-85
